createdAt,value
2023-02-08T00:00:10.693Z,11.93
2023-02-08T00:02:37.679Z,10.80
2023-02-08T00:05:04.801Z,14.20
2023-02-08T00:07:31.641Z,11.27
2023-02-08T00:09:58.505Z,10.80
2023-02-08T00:12:25.539Z,10.65
2023-02-08T00:14:52.353Z,12.88
2023-02-08T00:17:19.294Z,11.95
2023-02-08T00:19:46.187Z,10.25
2023-02-08T00:22:13.038Z,12.00
2023-02-08T00:24:40.040Z,10.68
2023-02-08T00:27:07.185Z,10.48
2023-02-08T00:29:34.093Z,13.43
2023-02-08T00:32:01.092Z,11.30
2023-02-08T00:34:28.058Z,11.88
2023-02-08T00:36:54.954Z,12.80
2023-02-08T00:39:21.861Z,11.25
2023-02-08T00:41:48.675Z,11.38
2023-02-08T00:44:15.538Z,10.68
2023-02-08T00:46:42.429Z,13.57
2023-02-08T00:49:09.309Z,12.02
2023-02-08T00:51:36.139Z,12.38
2023-02-08T00:54:03.051Z,12.25
2023-02-08T00:56:29.860Z,12.52
2023-02-08T00:58:56.609Z,13.07
2023-02-08T01:01:23.417Z,13.07
2023-02-08T01:03:50.194Z,13.35
2023-02-08T01:06:18.321Z,12.05
2023-02-08T01:08:45.205Z,12.55
2023-02-08T01:11:14.976Z,13.23
2023-02-08T01:13:42.268Z,15.75
2023-02-08T01:16:17.380Z,13.40
2023-02-08T01:18:46.637Z,11.98
2023-02-08T01:21:20.021Z,13.23
2023-02-08T01:23:47.679Z,12.95
2023-02-08T01:26:16.885Z,13.05
2023-02-08T01:28:44.113Z,12.90
2023-02-08T01:31:15.019Z,12.65
2023-02-08T01:33:42.793Z,13.32
2023-02-08T01:36:11.002Z,12.70
2023-02-08T01:38:38.615Z,11.80
2023-02-08T01:41:07.853Z,12.30
2023-02-08T01:43:56.412Z,12.02
2023-02-08T01:46:23.369Z,13.27
2023-02-08T01:48:51.000Z,16.77
2023-02-08T01:51:21.929Z,13.10
2023-02-08T01:53:50.648Z,12.13
2023-02-08T01:56:37.492Z,11.07
2023-02-08T01:59:09.018Z,13.75
2023-02-08T02:01:36.311Z,13.48
2023-02-08T02:04:04.933Z,10.98
2023-02-08T02:06:37.310Z,15.20
2023-02-08T02:09:04.054Z,14.95
2023-02-08T02:11:30.972Z,13.75
2023-02-08T02:13:58.701Z,15.13
2023-02-08T02:16:25.503Z,13.43
2023-02-08T02:18:52.404Z,12.68
2023-02-08T02:21:41.710Z,14.25
2023-02-08T02:24:42.344Z,11.65
2023-02-08T02:27:40.781Z,12.52
2023-02-08T02:30:30.585Z,13.10
2023-02-08T02:33:13.637Z,11.27
2023-02-08T02:36:01.632Z,10.88
2023-02-08T02:38:55.877Z,12.60
2023-02-08T02:41:44.513Z,14.05
2023-02-08T02:44:22.051Z,13.52
2023-02-08T02:47:01.345Z,9.02
2023-02-08T02:49:39.403Z,13.70
2023-02-08T02:52:15.861Z,10.88
2023-02-08T02:54:53.268Z,11.90
2023-02-08T02:57:28.163Z,10.93
2023-02-08T02:59:55.408Z,9.45
2023-02-08T03:02:22.720Z,10.88
2023-02-08T03:04:57.567Z,11.32
2023-02-08T03:07:31.630Z,9.45
2023-02-08T03:10:07.600Z,9.77
2023-02-08T03:12:58.727Z,11.80
2023-02-08T03:16:11.403Z,10.40
2023-02-08T03:18:47.805Z,10.20
2023-02-08T03:21:20.659Z,8.63
2023-02-08T03:23:53.378Z,9.23
2023-02-08T03:26:59.804Z,9.60
2023-02-08T03:29:55.345Z,9.35
2023-02-08T03:32:49.780Z,9.18
2023-02-08T03:35:37.612Z,8.35
2023-02-08T03:38:29.357Z,8.85
2023-02-08T03:41:00.026Z,8.70
2023-02-08T03:44:01.990Z,8.75
2023-02-08T03:46:36.660Z,8.70
2023-02-08T03:49:08.629Z,9.88
2023-02-08T03:51:39.072Z,7.43
2023-02-08T03:54:09.868Z,7.25
2023-02-08T03:57:03.342Z,6.78
2023-02-08T03:59:35.917Z,8.85
2023-02-08T04:02:05.918Z,9.30
2023-02-08T04:04:45.046Z,7.53
2023-02-08T04:07:12.147Z,7.63
2023-02-08T04:09:39.336Z,7.63
2023-02-08T04:12:06.454Z,8.40
2023-02-08T04:14:33.295Z,6.82
2023-02-08T04:17:00.138Z,8.13
2023-02-08T04:19:26.928Z,8.25
2023-02-08T04:21:53.896Z,8.20
2023-02-08T04:24:20.928Z,7.45
2023-02-08T04:26:50.304Z,8.82
2023-02-08T04:29:17.073Z,7.97
2023-02-08T04:31:43.825Z,7.50
2023-02-08T04:34:10.679Z,7.80
2023-02-08T04:36:37.499Z,8.10
2023-02-08T04:39:04.494Z,8.43
2023-02-08T04:41:31.294Z,6.88
2023-02-08T04:43:58.070Z,8.77
2023-02-08T04:46:24.946Z,7.57
2023-02-08T04:48:51.771Z,8.70
2023-02-08T04:51:18.605Z,6.82
2023-02-08T04:53:45.397Z,8.02
2023-02-08T04:56:12.239Z,8.45
2023-02-08T04:58:39.024Z,9.30
2023-02-08T05:01:10.905Z,7.70
2023-02-08T05:03:38.000Z,6.38
2023-02-08T05:06:04.956Z,7.75
2023-02-08T05:08:31.819Z,6.78
2023-02-08T05:10:58.602Z,6.50
2023-02-08T05:13:25.431Z,7.82
2023-02-08T05:15:52.326Z,7.78
2023-02-08T05:18:19.389Z,7.85
2023-02-08T05:20:46.276Z,7.43
2023-02-08T05:23:13.137Z,8.35
2023-02-08T05:25:40.554Z,8.40
2023-02-08T05:28:07.415Z,8.57
2023-02-08T05:30:34.315Z,7.63
2023-02-08T05:33:01.100Z,8.07
2023-02-08T05:35:27.887Z,6.68
2023-02-08T05:37:54.641Z,8.70
2023-02-08T05:40:21.540Z,8.63
2023-02-08T05:42:48.335Z,8.57
2023-02-08T05:45:15.282Z,6.68
2023-02-08T05:47:42.642Z,7.57
2023-02-08T05:50:10.429Z,8.60
2023-02-08T05:52:37.334Z,6.90
2023-02-08T05:55:04.321Z,6.10
2023-02-08T05:57:33.578Z,8.85
2023-02-08T06:00:01.774Z,7.05
2023-02-08T06:02:28.668Z,7.35
2023-02-08T06:04:55.744Z,7.68
2023-02-08T06:07:22.628Z,7.63
2023-02-08T06:09:49.451Z,6.78
2023-02-08T06:12:16.352Z,9.05
2023-02-08T06:14:43.337Z,7.97
2023-02-08T06:17:10.147Z,7.10
2023-02-08T06:19:37.018Z,7.65
2023-02-08T06:22:03.855Z,8.25
2023-02-08T06:24:30.836Z,8.70
2023-02-08T06:26:57.708Z,6.38
2023-02-08T06:29:24.649Z,7.75
2023-02-08T06:31:51.585Z,7.70
2023-02-08T06:34:18.466Z,10.68
2023-02-08T06:36:45.784Z,10.18
2023-02-08T06:39:12.759Z,8.88
2023-02-08T06:41:39.553Z,9.15
2023-02-08T06:44:06.733Z,7.82
2023-02-08T06:46:33.914Z,9.73
2023-02-08T06:49:00.763Z,9.32
2023-02-08T06:51:27.988Z,8.27
2023-02-08T06:53:55.074Z,9.60
2023-02-08T06:56:21.881Z,8.70
2023-02-08T06:58:48.698Z,13.32
2023-02-08T07:01:16.333Z,8.65
2023-02-08T07:03:43.247Z,11.50
2023-02-08T07:06:18.595Z,9.15
2023-02-08T07:08:46.265Z,9.13
2023-02-08T07:11:15.641Z,11.02
2023-02-08T07:13:42.732Z,10.68
2023-02-08T07:16:10.309Z,8.70
2023-02-08T07:18:37.643Z,8.02
2023-02-08T07:21:05.054Z,10.13
2023-02-08T07:23:31.971Z,10.50
2023-02-08T07:26:04.987Z,10.02
2023-02-08T07:28:32.452Z,10.60
2023-02-08T07:30:59.392Z,9.60
2023-02-08T07:33:26.556Z,8.90
2023-02-08T07:35:53.425Z,9.50
2023-02-08T07:38:20.903Z,9.68
2023-02-08T07:40:48.028Z,9.35
2023-02-08T07:43:14.859Z,10.35
2023-02-08T07:45:42.044Z,10.00
2023-02-08T07:48:09.099Z,9.10
2023-02-08T07:50:35.984Z,9.13
2023-02-08T07:53:02.831Z,8.80
2023-02-08T07:55:29.696Z,8.85
2023-02-08T07:57:57.342Z,11.77
2023-02-08T08:00:24.682Z,10.10
2023-02-08T08:02:51.710Z,9.93
2023-02-08T08:05:18.706Z,10.23
2023-02-08T08:07:45.694Z,12.65
2023-02-08T08:10:12.523Z,9.30
2023-02-08T08:12:39.500Z,11.98
2023-02-08T08:15:07.050Z,11.90
2023-02-08T08:17:33.869Z,10.15
2023-02-08T08:20:00.764Z,11.48
2023-02-08T08:22:27.652Z,10.93
2023-02-08T08:24:54.918Z,9.15
2023-02-08T08:27:21.802Z,7.13
2023-02-08T08:29:51.321Z,10.25
2023-02-08T08:32:18.989Z,9.82
2023-02-08T08:34:45.804Z,9.88
2023-02-08T08:37:12.683Z,10.88
2023-02-08T08:39:39.664Z,12.27
2023-02-08T08:42:06.529Z,10.18
2023-02-08T08:44:33.835Z,10.50
2023-02-08T08:47:01.261Z,10.68
2023-02-08T08:49:29.239Z,11.38
2023-02-08T08:51:56.860Z,13.13
2023-02-08T08:54:24.029Z,11.63
2023-02-08T08:56:50.916Z,9.90
2023-02-08T08:59:18.162Z,11.27
2023-02-08T09:01:45.113Z,9.13
2023-02-08T09:04:12.266Z,10.18
2023-02-08T09:06:39.202Z,9.93
2023-02-08T09:09:06.625Z,9.82
2023-02-08T09:11:33.598Z,9.57
2023-02-08T09:14:04.680Z,10.35
2023-02-08T09:16:32.997Z,9.40
2023-02-08T09:19:04.670Z,9.43
2023-02-08T09:21:31.779Z,10.43
2023-02-08T09:23:58.674Z,10.50
2023-02-08T09:26:26.681Z,11.65
2023-02-08T09:28:53.992Z,11.48
2023-02-08T09:31:26.785Z,8.68
2023-02-08T09:33:56.282Z,7.55
2023-02-08T09:36:24.438Z,10.82
2023-02-08T09:38:54.650Z,11.05
2023-02-08T09:41:57.826Z,8.65
2023-02-08T09:44:47.661Z,9.73
2023-02-08T09:47:22.654Z,10.75
2023-02-08T09:50:17.068Z,8.98
2023-02-08T09:53:02.446Z,10.05
2023-02-08T09:55:37.515Z,12.05
2023-02-08T09:58:23.638Z,10.70
2023-02-08T10:00:52.840Z,11.40
2023-02-08T10:03:29.526Z,11.77
2023-02-08T10:05:56.708Z,10.60
2023-02-08T10:08:34.265Z,11.30
2023-02-08T10:11:09.356Z,10.93
2023-02-08T10:13:56.794Z,10.20
2023-02-08T10:16:44.870Z,12.43
2023-02-08T10:19:39.537Z,9.43
2023-02-08T10:22:43.771Z,11.25
2023-02-08T10:25:45.451Z,11.57
2023-02-08T10:28:42.853Z,14.82
2023-02-08T10:31:18.464Z,12.15
2023-02-08T10:34:00.396Z,11.85
2023-02-08T10:36:32.116Z,8.07
2023-02-08T10:39:00.635Z,9.73
2023-02-08T10:41:35.644Z,10.02
2023-02-08T10:44:18.590Z,12.60
2023-02-08T10:46:56.503Z,10.95
2023-02-08T10:49:46.793Z,11.07
2023-02-08T10:52:13.733Z,10.20
2023-02-08T10:54:40.662Z,10.32
2023-02-08T10:57:21.991Z,10.38
2023-02-08T10:59:56.451Z,10.95
2023-02-08T11:02:47.263Z,13.93
2023-02-08T11:05:19.098Z,11.75
2023-02-08T11:07:46.264Z,12.27
2023-02-08T11:10:19.117Z,10.15
2023-02-08T11:13:05.646Z,9.73
2023-02-08T11:15:48.868Z,11.60
2023-02-08T11:18:28.808Z,10.90
2023-02-08T11:20:58.760Z,10.30
2023-02-08T11:23:28.752Z,10.35
2023-02-08T11:26:15.374Z,14.27
2023-02-08T11:28:43.126Z,10.38
2023-02-08T11:31:28.792Z,11.60
2023-02-08T11:34:07.497Z,11.20
2023-02-08T11:36:36.117Z,9.57
2023-02-08T11:39:18.924Z,9.52
2023-02-08T11:41:47.529Z,9.23
2023-02-08T11:44:38.008Z,10.02
2023-02-08T11:47:08.228Z,11.73
2023-02-08T11:49:41.309Z,14.45
2023-02-08T11:52:41.603Z,9.48
2023-02-08T11:55:17.564Z,10.32
2023-02-08T11:58:03.075Z,10.57
2023-02-08T12:00:35.391Z,9.23
2023-02-08T12:03:16.072Z,11.15
2023-02-08T12:06:10.669Z,10.52
2023-02-08T12:09:00.590Z,9.15
2023-02-08T12:11:42.712Z,13.73
2023-02-08T12:14:46.925Z,12.82
2023-02-08T12:17:45.993Z,13.87
2023-02-08T12:20:33.760Z,11.85
2023-02-08T12:23:26.836Z,9.20
2023-02-08T12:26:12.355Z,9.63
2023-02-08T12:28:41.920Z,11.38
2023-02-08T12:31:30.806Z,10.10
2023-02-08T12:34:25.778Z,11.05
2023-02-08T12:37:32.449Z,8.15
2023-02-08T12:40:47.575Z,11.60
2023-02-08T12:43:46.924Z,11.82
2023-02-08T12:46:45.740Z,11.82
2023-02-08T12:49:31.019Z,12.15
2023-02-08T12:52:31.566Z,9.60
2023-02-08T12:55:22.032Z,10.38
2023-02-08T12:58:12.655Z,11.63
2023-02-08T13:00:42.047Z,10.02
2023-02-08T13:03:12.116Z,9.57
2023-02-08T13:05:50.742Z,10.98
2023-02-08T13:08:58.836Z,13.10
2023-02-08T13:11:48.723Z,10.60
2023-02-08T13:14:39.511Z,11.05
2023-02-08T13:17:41.476Z,13.55
2023-02-08T13:20:20.346Z,12.23
2023-02-08T13:22:48.628Z,11.63
2023-02-08T13:25:27.090Z,10.95
2023-02-08T13:27:54.045Z,13.02
2023-02-08T13:30:22.855Z,13.23
2023-02-08T13:32:51.031Z,12.25
2023-02-08T13:35:36.197Z,12.13
2023-02-08T13:38:06.408Z,13.27
2023-02-08T13:40:38.574Z,10.43
2023-02-08T13:43:09.289Z,11.07
2023-02-08T13:45:44.123Z,12.13
2023-02-08T13:48:14.796Z,11.75
2023-02-08T13:50:43.697Z,14.77
2023-02-08T13:53:11.632Z,11.77
2023-02-08T13:55:53.514Z,15.60
2023-02-08T13:58:34.635Z,12.05
2023-02-08T14:01:23.169Z,12.13
2023-02-08T14:04:13.243Z,15.18
2023-02-08T14:07:01.290Z,13.55
2023-02-08T14:10:06.951Z,16.20
2023-02-08T14:12:49.657Z,16.27
2023-02-08T14:15:16.493Z,12.90
2023-02-08T14:17:50.152Z,12.40
2023-02-08T14:20:21.998Z,13.25
2023-02-08T14:22:55.273Z,10.45
2023-02-08T14:25:59.713Z,12.93
2023-02-08T14:28:29.196Z,15.23
2023-02-08T14:30:58.828Z,13.68
2023-02-08T14:33:29.868Z,18.15
2023-02-08T14:36:02.789Z,14.57
2023-02-08T14:39:06.740Z,11.65
2023-02-08T14:41:46.905Z,13.45
2023-02-08T14:44:38.657Z,17.85
2023-02-08T14:47:28.097Z,17.38
2023-02-08T14:50:18.878Z,12.73
2023-02-08T14:52:59.270Z,18.83
2023-02-08T14:55:31.890Z,14.90
2023-02-08T14:58:02.859Z,11.30
2023-02-08T15:00:34.211Z,15.00
2023-02-08T15:03:03.734Z,13.10
2023-02-08T15:05:35.797Z,15.57
2023-02-08T15:08:03.463Z,14.80
2023-02-08T15:10:33.193Z,12.27
2023-02-08T15:13:06.507Z,16.38
2023-02-08T15:15:42.771Z,15.13
2023-02-08T15:18:20.826Z,15.05
2023-02-08T15:21:02.326Z,12.35
2023-02-08T15:23:30.757Z,17.55
2023-02-08T15:26:20.994Z,12.90
2023-02-08T15:28:48.115Z,16.27
2023-02-08T15:31:24.224Z,16.02
2023-02-08T15:33:54.057Z,15.95
2023-02-08T15:36:33.263Z,17.90
2023-02-08T15:39:09.427Z,17.75
2023-02-08T15:41:38.115Z,16.38
2023-02-08T15:44:30.346Z,16.45
2023-02-08T15:47:05.961Z,14.80
2023-02-08T15:49:39.698Z,17.83
2023-02-08T15:52:08.298Z,16.10
2023-02-08T15:54:35.250Z,18.00
2023-02-08T15:57:30.040Z,19.52
2023-02-08T16:02:34.825Z,18.08
2023-02-08T16:05:03.628Z,18.63
2023-02-08T16:07:46.966Z,18.25
2023-02-08T16:10:43.839Z,20.35
2023-02-08T16:13:25.496Z,20.33
2023-02-08T16:16:03.788Z,18.38
2023-02-08T16:18:35.058Z,20.63
2023-02-08T16:21:05.621Z,19.45
2023-02-08T16:23:39.122Z,18.52
2023-02-08T16:26:20.289Z,21.15
2023-02-08T16:29:02.126Z,18.88
2023-02-08T16:31:32.016Z,18.98
2023-02-08T16:34:17.328Z,20.25
2023-02-08T16:36:50.632Z,16.67
2023-02-08T16:39:17.469Z,18.98
2023-02-08T16:41:55.475Z,18.15
2023-02-08T16:44:34.372Z,18.30
2023-02-08T16:47:02.945Z,24.63
2023-02-08T16:49:29.788Z,19.15
2023-02-08T16:51:58.513Z,20.52
2023-02-08T16:54:28.382Z,20.40
2023-02-08T16:57:00.305Z,19.23
2023-02-08T16:59:28.114Z,19.08
2023-02-08T17:01:56.572Z,20.75
2023-02-08T17:04:26.692Z,23.15
2023-02-08T17:06:54.016Z,20.05
2023-02-08T17:09:20.831Z,20.45
2023-02-08T17:11:47.735Z,16.75
2023-02-08T17:14:15.111Z,22.27
2023-02-08T17:16:41.949Z,20.27
2023-02-08T17:19:17.156Z,19.27
2023-02-08T17:21:44.228Z,19.52
2023-02-08T17:24:11.044Z,19.77
2023-02-08T17:26:42.145Z,18.42
2023-02-08T17:29:10.850Z,18.50
2023-02-08T17:31:37.704Z,22.67
2023-02-08T17:34:04.607Z,18.80
2023-02-08T17:36:36.853Z,14.57
2023-02-08T17:39:05.545Z,18.50
2023-02-08T17:41:32.393Z,19.08
2023-02-08T17:43:59.317Z,18.23
2023-02-08T17:46:30.578Z,16.48
2023-02-08T17:49:01.574Z,20.95
2023-02-08T17:51:28.752Z,16.42
2023-02-08T17:53:55.612Z,19.17
2023-02-08T17:56:24.893Z,19.25
2023-02-08T17:58:53.726Z,18.10
2023-02-08T18:01:23.671Z,17.15
2023-02-08T18:03:51.743Z,18.80
2023-02-08T18:06:19.944Z,15.25
2023-02-08T18:08:47.040Z,19.10
2023-02-08T18:11:18.958Z,14.98
2023-02-08T18:13:47.557Z,16.35
2023-02-08T18:16:17.714Z,19.42
2023-02-08T18:18:45.097Z,18.20
2023-02-08T18:21:18.132Z,16.48
2023-02-08T18:23:46.262Z,14.40
2023-02-08T18:26:16.946Z,14.23
2023-02-08T18:28:44.882Z,14.35
2023-02-08T18:31:15.751Z,15.40
2023-02-08T18:33:43.943Z,18.27
2023-02-08T18:36:12.403Z,12.60
2023-02-08T18:38:45.993Z,18.80
2023-02-08T18:41:16.466Z,15.65
2023-02-08T18:43:43.388Z,14.90
2023-02-08T18:46:14.559Z,16.55
2023-02-08T18:48:42.159Z,13.18
2023-02-08T18:51:10.890Z,15.90
2023-02-08T18:53:40.258Z,17.00
2023-02-08T18:56:10.773Z,12.93
2023-02-08T18:58:37.630Z,17.48
2023-02-08T19:01:14.085Z,14.57
2023-02-08T19:03:41.922Z,12.70
2023-02-08T19:06:14.837Z,13.80
2023-02-08T19:08:41.767Z,14.30
2023-02-08T19:11:17.442Z,14.80
2023-02-08T19:13:44.727Z,14.75
2023-02-08T19:16:12.452Z,12.70
2023-02-08T19:18:39.890Z,15.90
2023-02-08T19:21:08.827Z,14.63
2023-02-08T19:23:35.910Z,14.55
2023-02-08T19:26:23.866Z,13.98
2023-02-08T19:28:52.149Z,13.57
2023-02-08T19:31:21.875Z,14.27
2023-02-08T19:33:51.361Z,13.40
2023-02-08T19:36:23.316Z,12.48
2023-02-08T19:38:52.757Z,14.20
2023-02-08T19:41:33.163Z,14.40
2023-02-08T19:44:01.190Z,11.95
2023-02-08T19:46:28.061Z,13.27
2023-02-08T19:49:00.026Z,14.55
2023-02-08T19:51:29.021Z,13.85
2023-02-08T19:53:58.629Z,14.85
2023-02-08T19:56:25.438Z,14.55
2023-02-08T19:58:52.338Z,13.98
2023-02-08T20:01:21.694Z,12.20
2023-02-08T20:03:50.354Z,11.63
2023-02-08T20:06:20.181Z,12.02
2023-02-08T20:08:49.177Z,13.32
2023-02-08T20:11:27.964Z,14.65
2023-02-08T20:13:57.189Z,11.05
2023-02-08T20:16:24.962Z,14.50
2023-02-08T20:18:51.956Z,12.68
2023-02-08T20:21:19.514Z,10.95
2023-02-08T20:23:46.895Z,13.95
2023-02-08T20:26:21.367Z,12.68
2023-02-08T20:28:53.694Z,12.13
2023-02-08T20:31:27.679Z,11.43
2023-02-08T20:33:57.468Z,10.98
2023-02-08T20:36:26.888Z,11.48
2023-02-08T20:38:56.866Z,11.50
2023-02-08T20:41:25.499Z,13.93
2023-02-08T20:43:53.559Z,11.40
2023-02-08T20:46:26.304Z,11.13
2023-02-08T20:48:55.841Z,12.35
2023-02-08T20:51:23.885Z,12.68
2023-02-08T20:53:52.688Z,12.55
2023-02-08T20:56:29.181Z,12.80
2023-02-08T20:58:56.900Z,11.45
2023-02-08T21:01:25.982Z,11.55
2023-02-08T21:03:58.131Z,10.18
2023-02-08T21:06:33.424Z,10.90
2023-02-08T21:09:06.613Z,11.45
2023-02-08T21:11:34.817Z,12.70
2023-02-08T21:14:02.879Z,12.77
2023-02-08T21:16:30.345Z,12.73
2023-02-08T21:18:57.576Z,11.93
2023-02-08T21:21:25.158Z,12.45
2023-02-08T21:23:51.940Z,12.52
2023-02-08T21:26:20.842Z,12.55
2023-02-08T21:28:47.831Z,11.20
2023-02-08T21:31:19.712Z,10.40
2023-02-08T21:33:46.692Z,10.40
2023-02-08T21:36:17.009Z,10.73
2023-02-08T21:38:44.512Z,10.70
2023-02-08T21:41:23.295Z,10.35
2023-02-08T21:43:50.991Z,10.90
2023-02-08T21:46:17.883Z,14.85
2023-02-08T21:49:04.300Z,12.07
2023-02-08T21:51:49.833Z,13.90
2023-02-08T21:54:40.235Z,11.98
2023-02-08T21:57:10.312Z,10.80
2023-02-08T21:59:37.852Z,11.45
2023-02-08T22:02:06.985Z,11.25
2023-02-08T22:04:35.481Z,11.57
2023-02-08T22:07:04.616Z,10.60
2023-02-08T22:09:31.644Z,10.70
2023-02-08T22:11:58.915Z,10.63
2023-02-08T22:14:25.838Z,10.90
2023-02-08T22:16:52.694Z,12.63
2023-02-08T22:19:19.575Z,11.00
2023-02-08T22:21:46.354Z,12.90
2023-02-08T22:24:13.145Z,10.95
2023-02-08T22:26:40.005Z,12.88
2023-02-08T22:29:06.797Z,14.18
2023-02-08T22:31:33.680Z,12.45
2023-02-08T22:34:00.749Z,12.93
2023-02-08T22:36:27.584Z,11.98
2023-02-08T22:38:54.501Z,11.10
2023-02-08T22:41:21.864Z,10.75
2023-02-08T22:43:49.530Z,10.50
2023-02-08T22:46:16.368Z,12.43
2023-02-08T22:48:43.217Z,12.18
2023-02-08T22:51:14.657Z,11.70
2023-02-08T22:53:41.520Z,12.50
2023-02-08T22:56:08.810Z,15.65
2023-02-08T22:58:35.941Z,10.30
2023-02-08T23:01:03.910Z,12.82
2023-02-08T23:03:30.792Z,13.82
2023-02-08T23:05:57.579Z,12.52
2023-02-08T23:08:24.423Z,12.63
2023-02-08T23:11:01.904Z,11.20
2023-02-08T23:13:29.769Z,14.38
2023-02-08T23:15:57.147Z,11.05
2023-02-08T23:18:24.554Z,13.82
2023-02-08T23:20:51.374Z,13.27
2023-02-08T23:23:18.789Z,11.57
2023-02-08T23:25:45.641Z,13.23
2023-02-08T23:28:12.834Z,12.48
2023-02-08T23:30:43.744Z,10.07
2023-02-08T23:33:10.780Z,16.88
2023-02-08T23:35:41.267Z,13.00
2023-02-08T23:38:09.195Z,10.75
2023-02-08T23:40:36.059Z,12.88
2023-02-08T23:43:03.836Z,12.20
2023-02-08T23:45:30.860Z,12.98
2023-02-08T23:47:57.745Z,15.07
2023-02-08T23:50:24.834Z,14.45
2023-02-08T23:52:51.754Z,11.73
2023-02-08T23:55:18.605Z,13.15
2023-02-08T23:57:45.500Z,11.95
